KSLK/SLK METAR and TAF weather

Enter ICAO airport designator
Station Type Date Time Source
KSLK METAR 2020/09/22 15:51 UTC NOAA

KSLK 221551Z AUTO VRB03KT 10SM CLR 14/M01 A3017 RMK AO2 SLP226 T01391006


Station Type Date Time Source
KSLK Decoded METAR 2020/09/22 15:51 UTC NOAA

ADIRONDACK REGIONAL AIRPORT, NY, United States (KSLK) 44-24N 074-12W 498M
Sep 22, 2020 - 11:51 AM EDT / 2020.09.22 1551 UTC
Wind: Variable at 3 MPH (3 KT):0
Visibility: 10 mile(s):0
Sky conditions: clear
Temperature: 57.0 F (13.9 C)
Dew Point: 30.9 F (-0.6 C)
Relative Humidity: 36%
Pressure (altimeter): 30.17 in. Hg (1021 hPa)
ob: KSLK 221551Z AUTO VRB03KT 10SM CLR 14/M01 A3017 RMK AO2 SLP226 T01391006
cycle: 16

Station Type Date Time Source
KSLK TAF 2020/09/22 13:04 UTC NOAA

TAF
AMD KSLK 221302Z 2213/2312 00000KT 3SM BR SCT001
TEMPO 2213/2214 1SM BR BKN001
FM221400 36005KT P6SM SKC
FM230000 00000KT P6SM SKC
FM231000 VRB04KT P6SM SCT045

Example: see airport list